Portada
METAR-TAF:

METAR-TAF

Aeroports :

Aeroport Internacional Diori Hamani

Niamey, Níger

latitud: 13-29N, longitud: 002-10E, altitud: 223 m

Observació

L'informe es va fer fa 38 minuts, a les 11:00 UTC
Vent 6 kt del Sud, variant entre Sud/Sud-Est i Sud-Oest
Temperatura 28°C
Humitat 70%
Pressió 1013 hPa
Visibilitat 10 km o més
Escasses núvols a una alçada de 2600 ft

METAR: DRRN 091100Z 19006KT 160V230 9999 FEW026 28/22 Q1013 NOSIG

Hora: 12:38 (11:38 UTC)

Pronòstic

L'informe es va fer fa 38 minuts, a les 11:00 UTC
Pronòstic vàlid del 09 a les 12 UTC al 10 a les 18 UTC
Vent 10 kt del Oest/Sud-Oest
Visibilitat: 8000 m
Probabilitat 30% :
Temporalment
l' 09 a les 15 UTC al 09 a les 20 UTC
Escasses núvols a una alçada de 4000 ft
Escasses núvols a una alçada de 5000 ft, Cumulonimbus.
tempesta

TAF: DRRN 091100Z 0912/1018 25010KT 8000 NSC PROB30 TEMPO 0915/0920 TS FEW040 FEW050CB TEST TEST

Observacions i pronòstics meteorològics de més de 4000 aeroports (METAR i TAF).

Les estacions disponibles són els punts grocs i vermells al mapa.

Posi el ratolí al punt desitjat per veure el nom de l'estació.

Feu clic per veure les observacions i els pronòstics meteorològics.

Per canviar el mapa: feu clic els botons verds amb una creu de color negre per apropar; al botó verd amb un guió per allunyar la imatge; o en les fletxes verdes per a mapes adjacents.


METAR-TAF: